sensor_id;sensor_type;location;lat;lon;timestamp;pressure;altitude;pressure_sealevel;temperature;humidity
83025;BME280;72958;53.326;-1.496;2023-10-08T00:00:31;100167.66;;;20.99;39.99
83025;BME280;72958;53.326;-1.496;2023-10-08T00:03:07;100171.18;;;21.40;39.39
83025;BME280;72958;53.326;-1.496;2023-10-08T00:05:28;100173.20;;;21.34;39.26
83025;BME280;72958;53.326;-1.496;2023-10-08T00:08:44;100175.02;;;21.05;39.71
83025;BME280;72958;53.326;-1.496;2023-10-08T00:11:19;100164.67;;;21.46;39.59
83025;BME280;72958;53.326;-1.496;2023-10-08T00:13:47;100162.33;;;20.93;39.59
83025;BME280;72958;53.326;-1.496;2023-10-08T00:17:24;100161.11;;;21.10;39.28
83025;BME280;72958;53.326;-1.496;2023-10-08T00:19:46;100172.08;;;21.27;39.02
83025;BME280;72958;53.326;-1.496;2023-10-08T00:23:20;100175.42;;;20.79;39.88
83025;BME280;72958;53.326;-1.496;2023-10-08T00:26:09;100170.23;;;21.66;39.20
83025;BME280;72958;53.326;-1.496;2023-10-08T00:28:57;100180.67;;;21.18;39.15
83025;BME280;72958;53.326;-1.496;2023-10-08T00:31:23;100187.85;;;21.37;39.31
83025;BME280;72958;53.326;-1.496;2023-10-08T00:34:20;100194.02;;;21.47;39.20
83025;BME280;72958;53.326;-1.496;2023-10-08T00:36:48;100202.52;;;21.43;39.26
83025;BME280;72958;53.326;-1.496;2023-10-08T00:39:18;100213.81;;;21.16;39.26
83025;BME280;72958;53.326;-1.496;2023-10-08T00:41:52;100220.22;;;21.48;39.52
83025;BME280;72958;53.326;-1.496;2023-10-08T00:44:21;100225.17;;;21.23;39.58
83025;BME280;72958;53.326;-1.496;2023-10-08T00:47:14;100231.44;;;21.25;39.54
83025;BME280;72958;53.326;-1.496;2023-10-08T00:49:48;100243.83;;;21.65;39.68
83025;BME280;72958;53.326;-1.496;2023-10-08T00:52:30;100246.13;;;21.24;40.10
83025;BME280;72958;53.326;-1.496;2023-10-08T00:55:21;100249.42;;;21.11;40.34
83025;BME280;72958;53.326;-1.496;2023-10-08T00:58:42;100254.56;;;20.92;41.05
83025;BME280;72958;53.326;-1.496;2023-10-08T01:01:30;100252.04;;;20.78;41.23
83025;BME280;72958;53.326;-1.496;2023-10-08T01:04:06;100246.22;;;20.85;41.26
83025;BME280;72958;53.326;-1.496;2023-10-08T01:07:13;100248.87;;;20.17;42.16
83025;BME280;72958;53.326;-1.496;2023-10-08T01:09:44;100245.42;;;20.70;41.44
83025;BME280;72958;53.326;-1.496;2023-10-08T01:12:18;100244.71;;;20.47;41.46
83025;BME280;72958;53.326;-1.496;2023-10-08T01:14:46;100244.78;;;20.40;41.58
83025;BME280;72958;53.326;-1.496;2023-10-08T01:17:31;100246.53;;;20.59;41.29
83025;BME280;72958;53.326;-1.496;2023-10-08T01:20:05;100248.81;;;20.61;41.24
83025;BME280;72958;53.326;-1.496;2023-10-08T01:22:27;100249.05;;;20.49;41.39
83025;BME280;72958;53.326;-1.496;2023-10-08T01:25:11;100253.12;;;20.59;41.68
83025;BME280;72958;53.326;-1.496;2023-10-08T01:27:46;100255.74;;;20.15;42.78
83025;BME280;72958;53.326;-1.496;2023-10-08T01:30:13;100252.81;;;19.85;43.36
83025;BME280;72958;53.326;-1.496;2023-10-08T01:32:50;100250.41;;;19.84;43.09
83025;BME280;72958;53.326;-1.496;2023-10-08T01:35:19;100249.82;;;20.30;42.72
83025;BME280;72958;53.326;-1.496;2023-10-08T01:37:50;100243.83;;;20.38;42.56
83025;BME280;72958;53.326;-1.496;2023-10-08T01:40:23;100231.44;;;19.66;42.96
83025;BME280;72958;53.326;-1.496;2023-10-08T01:43:02;100229.36;;;20.30;42.24
83025;BME280;72958;53.326;-1.496;2023-10-08T01:45:28;100230.09;;;20.14;42.32
83025;BME280;72958;53.326;-1.496;2023-10-08T01:47:56;100229.55;;;20.50;41.77
83025;BME280;72958;53.326;-1.496;2023-10-08T01:50:28;100231.95;;;20.73;41.88
83025;BME280;72958;53.326;-1.496;2023-10-08T01:53:24;100237.44;;;20.47;41.85
83025;BME280;72958;53.326;-1.496;2023-10-08T01:55:53;100238.62;;;20.56;42.07
83025;BME280;72958;53.326;-1.496;2023-10-08T01:59:17;100247.50;;;20.40;42.33
83025;BME280;72958;53.326;-1.496;2023-10-08T02:02:39;100247.87;;;20.34;42.26
83025;BME280;72958;53.326;-1.496;2023-10-08T02:06:08;100237.42;;;20.32;41.87
83025;BME280;72958;53.326;-1.496;2023-10-08T02:08:38;100243.73;;;20.64;41.76
83025;BME280;72958;53.326;-1.496;2023-10-08T02:11:54;100243.61;;;20.26;42.06
83025;BME280;72958;53.326;-1.496;2023-10-08T02:15:21;100239.90;;;20.03;42.11
83025;BME280;72958;53.326;-1.496;2023-10-08T02:18:10;100234.90;;;19.97;42.16
83025;BME280;72958;53.326;-1.496;2023-10-08T02:20:38;100241.70;;;20.19;42.25
83025;BME280;72958;53.326;-1.496;2023-10-08T02:23:34;100239.63;;;19.75;42.50
83025;BME280;72958;53.326;-1.496;2023-10-08T02:27:13;100230.27;;;20.14;42.48
83025;BME280;72958;53.326;-1.496;2023-10-08T02:30:30;100227.56;;;19.89;42.44
83025;BME280;72958;53.326;-1.496;2023-10-08T02:33:27;100223.75;;;20.27;42.14
83025;BME280;72958;53.326;-1.496;2023-10-08T02:36:09;100220.91;;;20.07;41.93
83025;BME280;72958;53.326;-1.496;2023-10-08T02:38:55;100222.13;;;19.98;42.06
83025;BME280;72958;53.326;-1.496;2023-10-08T02:41:28;100226.17;;;20.54;41.91
83025;BME280;72958;53.326;-1.496;2023-10-08T02:44:03;100227.64;;;20.26;42.03
83025;BME280;72958;53.326;-1.496;2023-10-08T02:47:16;100227.78;;;20.29;41.93
83025;BME280;72958;53.326;-1.496;2023-10-08T02:49:59;100225.93;;;20.08;41.74
83025;BME280;72958;53.326;-1.496;2023-10-08T02:53:02;100224.43;;;20.21;41.77
83025;BME280;72958;53.326;-1.496;2023-10-08T02:55:28;100227.47;;;19.43;42.72
83025;BME280;72958;53.326;-1.496;2023-10-08T02:57:59;100228.38;;;19.78;42.05
83025;BME280;72958;53.326;-1.496;2023-10-08T03:01:20;100231.54;;;19.72;43.21
83025;BME280;72958;53.326;-1.496;2023-10-08T03:03:47;100233.39;;;19.92;42.78
83025;BME280;72958;53.326;-1.496;2023-10-08T03:06:41;100236.69;;;20.13;42.73
83025;BME280;72958;53.326;-1.496;2023-10-08T03:09:11;100234.19;;;19.92;42.58
83025;BME280;72958;53.326;-1.496;2023-10-08T03:11:39;100236.26;;;19.95;42.42
83025;BME280;72958;53.326;-1.496;2023-10-08T03:14:29;100241.69;;;19.99;42.30
83025;BME280;72958;53.326;-1.496;2023-10-08T03:17:14;100243.43;;;19.85;42.31
83025;BME280;72958;53.326;-1.496;2023-10-08T03:19:41;100240.27;;;19.40;42.19
83025;BME280;72958;53.326;-1.496;2023-10-08T03:22:36;100240.90;;;19.71;42.43
83025;BME280;72958;53.326;-1.496;2023-10-08T03:25:57;100250.70;;;19.58;42.76
83025;BME280;72958;53.326;-1.496;2023-10-08T03:28:36;100243.50;;;19.84;42.99
83025;BME280;72958;53.326;-1.496;2023-10-08T03:31:15;100243.65;;;19.77;42.92
83025;BME280;72958;53.326;-1.496;2023-10-08T03:33:36;100249.70;;;19.81;42.96
83025;BME280;72958;53.326;-1.496;2023-10-08T03:36:18;100250.86;;;20.16;42.93
83025;BME280;72958;53.326;-1.496;2023-10-08T03:38:51;100252.13;;;19.98;43.22
83025;BME280;72958;53.326;-1.496;2023-10-08T03:41:43;100249.34;;;20.29;42.75
83025;BME280;72958;53.326;-1.496;2023-10-08T03:44:19;100256.74;;;20.03;42.87
83025;BME280;72958;53.326;-1.496;2023-10-08T03:46:48;100256.13;;;20.32;42.89
83025;BME280;72958;53.326;-1.496;2023-10-08T03:49:19;100253.57;;;20.32;42.59
83025;BME280;72958;53.326;-1.496;2023-10-08T03:52:36;100244.42;;;20.16;42.42
83025;BME280;72958;53.326;-1.496;2023-10-08T03:55:28;100242.80;;;20.70;42.29
83025;BME280;72958;53.326;-1.496;2023-10-08T03:58:34;100244.13;;;20.55;42.45
83025;BME280;72958;53.326;-1.496;2023-10-08T04:01:10;100244.11;;;20.25;42.23
83025;BME280;72958;53.326;-1.496;2023-10-08T04:03:38;100248.90;;;20.30;42.13
83025;BME280;72958;53.326;-1.496;2023-10-08T04:06:10;100251.70;;;20.61;42.02
83025;BME280;72958;53.326;-1.496;2023-10-08T04:08:50;100247.87;;;20.43;42.26
83025;BME280;72958;53.326;-1.496;2023-10-08T04:12:02;100249.83;;;20.20;41.99
83025;BME280;72958;53.326;-1.496;2023-10-08T04:15:31;100255.40;;;20.56;41.85
83025;BME280;72958;53.326;-1.496;2023-10-08T04:18:22;100255.31;;;20.67;41.70
83025;BME280;72958;53.326;-1.496;2023-10-08T04:20:41;100259.60;;;20.69;41.64
83025;BME280;72958;53.326;-1.496;2023-10-08T04:23:17;100258.74;;;20.65;41.50
83025;BME280;72958;53.326;-1.496;2023-10-08T04:25:47;100254.23;;;20.42;42.25
83025;BME280;72958;53.326;-1.496;2023-10-08T04:28:19;100248.10;;;20.37;42.78
83025;BME280;72958;53.326;-1.496;2023-10-08T04:31:17;100252.40;;;19.97;42.74
83025;BME280;72958;53.326;-1.496;2023-10-08T04:33:50;100258.57;;;20.50;42.59
83025;BME280;72958;53.326;-1.496;2023-10-08T04:36:33;100261.89;;;20.52;42.50
83025;BME280;72958;53.326;-1.496;2023-10-08T04:39:18;100255.23;;;20.24;42.20
83025;BME280;72958;53.326;-1.496;2023-10-08T04:42:01;100252.64;;;20.33;42.06
83025;BME280;72958;53.326;-1.496;2023-10-08T04:44:39;100252.48;;;20.33;42.08
83025;BME280;72958;53.326;-1.496;2023-10-08T04:47:27;100253.93;;;20.00;42.68
83025;BME280;72958;53.326;-1.496;2023-10-08T04:49:55;100249.22;;;20.37;42.30
83025;BME280;72958;53.326;-1.496;2023-10-08T04:54:21;100256.14;;;20.11;42.83
83025;BME280;72958;53.326;-1.496;2023-10-08T04:57:00;100251.43;;;20.05;43.04
83025;BME280;72958;53.326;-1.496;2023-10-08T04:59:22;100245.35;;;19.89;43.31
83025;BME280;72958;53.326;-1.496;2023-10-08T05:02:10;100242.72;;;19.93;43.58
83025;BME280;72958;53.326;-1.496;2023-10-08T05:05:01;100242.30;;;19.21;44.63
83025;BME280;72958;53.326;-1.496;2023-10-08T05:07:43;100234.38;;;19.73;43.96
83025;BME280;72958;53.326;-1.496;2023-10-08T05:11:19;100230.19;;;20.09;43.31
83025;BME280;72958;53.326;-1.496;2023-10-08T05:14:41;100230.94;;;20.28;43.09
83025;BME280;72958;53.326;-1.496;2023-10-08T05:18:52;100249.68;;;20.24;43.13
83025;BME280;72958;53.326;-1.496;2023-10-08T05:21:33;100254.08;;;20.40;42.90
83025;BME280;72958;53.326;-1.496;2023-10-08T05:23:59;100257.29;;;20.39;42.84
83025;BME280;72958;53.326;-1.496;2023-10-08T05:27:16;100250.53;;;20.28;43.12
83025;BME280;72958;53.326;-1.496;2023-10-08T05:31:28;100248.40;;;19.90;43.17
83025;BME280;72958;53.326;-1.496;2023-10-08T05:34:41;100248.58;;;20.14;42.71
83025;BME280;72958;53.326;-1.496;2023-10-08T05:37:33;100234.08;;;20.17;42.43
83025;BME280;72958;53.326;-1.496;2023-10-08T05:40:46;100236.70;;;20.27;42.27
83025;BME280;72958;53.326;-1.496;2023-10-08T05:43:14;100230.94;;;20.19;42.33
83025;BME280;72958;53.326;-1.496;2023-10-08T05:45:41;100230.91;;;20.36;42.08
83025;BME280;72958;53.326;-1.496;2023-10-08T05:48:11;100233.11;;;20.24;42.25
83025;BME280;72958;53.326;-1.496;2023-10-08T05:50:41;100235.80;;;20.31;42.18
83025;BME280;72958;53.326;-1.496;2023-10-08T05:53:24;100234.78;;;20.37;42.01
83025;BME280;72958;53.326;-1.496;2023-10-08T05:56:06;100229.97;;;20.65;41.88
83025;BME280;72958;53.326;-1.496;2023-10-08T05:59:18;100219.44;;;20.47;42.17
83025;BME280;72958;53.326;-1.496;2023-10-08T06:02:32;100217.24;;;20.70;41.93
83025;BME280;72958;53.326;-1.496;2023-10-08T06:05:08;100224.05;;;20.46;41.89
83025;BME280;72958;53.326;-1.496;2023-10-08T06:08:51;100229.20;;;20.81;41.71
83025;BME280;72958;53.326;-1.496;2023-10-08T06:11:42;100234.25;;;20.55;41.67
83025;BME280;72958;53.326;-1.496;2023-10-08T06:14:07;100241.31;;;20.30;42.10
83025;BME280;72958;53.326;-1.496;2023-10-08T06:16:33;100243.08;;;20.62;42.03
83025;BME280;72958;53.326;-1.496;2023-10-08T06:19:11;100240.81;;;20.45;42.27
83025;BME280;72958;53.326;-1.496;2023-10-08T06:22:10;100235.12;;;20.17;42.31
83025;BME280;72958;53.326;-1.496;2023-10-08T06:24:36;100231.82;;;20.34;41.88
83025;BME280;72958;53.326;-1.496;2023-10-08T06:27:23;100230.43;;;20.84;41.89
83025;BME280;72958;53.326;-1.496;2023-10-08T06:32:20;100234.81;;;20.38;41.85
83025;BME280;72958;53.326;-1.496;2023-10-08T06:35:44;100232.59;;;20.49;41.75
83025;BME280;72958;53.326;-1.496;2023-10-08T06:38:47;100239.25;;;20.31;41.96
83025;BME280;72958;53.326;-1.496;2023-10-08T06:42:50;100247.51;;;20.61;41.67
83025;BME280;72958;53.326;-1.496;2023-10-08T06:45:17;100239.06;;;20.58;41.78
83025;BME280;72958;53.326;-1.496;2023-10-08T06:47:56;100237.96;;;20.68;41.70
83025;BME280;72958;53.326;-1.496;2023-10-08T06:50:28;100236.07;;;20.68;41.70
83025;BME280;72958;53.326;-1.496;2023-10-08T06:53:14;100236.98;;;20.64;41.88
83025;BME280;72958;53.326;-1.496;2023-10-08T06:57:03;100222.80;;;20.99;41.69
83025;BME280;72958;53.326;-1.496;2023-10-08T06:59:29;100212.86;;;20.67;41.72
83025;BME280;72958;53.326;-1.496;2023-10-08T07:02:13;100214.53;;;20.14;42.23
83025;BME280;72958;53.326;-1.496;2023-10-08T07:04:41;100209.84;;;20.46;41.96
83025;BME280;72958;53.326;-1.496;2023-10-08T07:07:15;100212.05;;;20.41;41.90
83025;BME280;72958;53.326;-1.496;2023-10-08T07:10:15;100215.63;;;20.67;41.89
83025;BME280;72958;53.326;-1.496;2023-10-08T07:13:31;100225.34;;;19.72;42.95
83025;BME280;72958;53.326;-1.496;2023-10-08T07:15:58;100224.41;;;19.02;45.08
83025;BME280;72958;53.326;-1.496;2023-10-08T07:18:45;100217.49;;;19.55;44.30
83025;BME280;72958;53.326;-1.496;2023-10-08T07:21:19;100214.26;;;19.76;43.66
83025;BME280;72958;53.326;-1.496;2023-10-08T07:25:05;100223.63;;;20.31;43.14
83025;BME280;72958;53.326;-1.496;2023-10-08T07:27:57;100229.48;;;19.47;43.93
83025;BME280;72958;53.326;-1.496;2023-10-08T07:30:40;100228.56;;;20.06;42.81
83025;BME280;72958;53.326;-1.496;2023-10-08T07:33:56;100235.66;;;20.31;42.78
83025;BME280;72958;53.326;-1.496;2023-10-08T07:36:28;100243.83;;;19.39;44.35
83025;BME280;72958;53.326;-1.496;2023-10-08T07:39:01;100250.76;;;20.06;43.12
83025;BME280;72958;53.326;-1.496;2023-10-08T07:41:41;100258.78;;;20.26;42.60
83025;BME280;72958;53.326;-1.496;2023-10-08T07:45:27;100262.00;;;20.38;42.37
83025;BME280;72958;53.326;-1.496;2023-10-08T07:47:55;100255.55;;;20.31;42.56
83025;BME280;72958;53.326;-1.496;2023-10-08T07:52:10;100252.15;;;20.76;42.01
83025;BME280;72958;53.326;-1.496;2023-10-08T07:56:13;100264.69;;;20.64;41.61
83025;BME280;72958;53.326;-1.496;2023-10-08T08:00:32;100253.92;;;21.39;40.94
83025;BME280;72958;53.326;-1.496;2023-10-08T08:03:01;100251.68;;;21.29;40.49
83025;BME280;72958;53.326;-1.496;2023-10-08T08:05:54;100244.11;;;21.64;39.91
83025;BME280;72958;53.326;-1.496;2023-10-08T08:08:26;100241.01;;;20.69;40.75
83025;BME280;72958;53.326;-1.496;2023-10-08T08:11:11;100233.75;;;21.51;39.91
83025;BME280;72958;53.326;-1.496;2023-10-08T08:13:59;100230.93;;;21.63;39.36
83025;BME280;72958;53.326;-1.496;2023-10-08T08:17:06;100229.02;;;21.94;39.20
83025;BME280;72958;53.326;-1.496;2023-10-08T08:19:33;100234.73;;;21.77;38.90
83025;BME280;72958;53.326;-1.496;2023-10-08T08:22:21;100234.04;;;21.79;38.76
83025;BME280;72958;53.326;-1.496;2023-10-08T08:25:36;100228.07;;;22.06;38.53
83025;BME280;72958;53.326;-1.496;2023-10-08T08:29:21;100227.72;;;21.74;39.23
83025;BME280;72958;53.326;-1.496;2023-10-08T08:32:18;100231.50;;;21.73;39.57
83025;BME280;72958;53.326;-1.496;2023-10-08T08:34:39;100242.45;;;21.47;40.66
83025;BME280;72958;53.326;-1.496;2023-10-08T08:37:52;100244.41;;;21.04;40.59
83025;BME280;72958;53.326;-1.496;2023-10-08T08:41:59;100245.67;;;20.91;40.73
83025;BME280;72958;53.326;-1.496;2023-10-08T08:45:00;100246.19;;;21.74;39.63
83025;BME280;72958;53.326;-1.496;2023-10-08T08:48:00;100251.10;;;21.77;39.31
83025;BME280;72958;53.326;-1.496;2023-10-08T08:50:59;100252.07;;;21.78;39.25
83025;BME280;72958;53.326;-1.496;2023-10-08T08:53:32;100250.97;;;21.24;39.94
83025;BME280;72958;53.326;-1.496;2023-10-08T08:56:07;100244.50;;;21.96;39.56
83025;BME280;72958;53.326;-1.496;2023-10-08T08:59:13;100250.93;;;21.23;40.31
83025;BME280;72958;53.326;-1.496;2023-10-08T09:01:44;100246.50;;;21.83;39.17
83025;BME280;72958;53.326;-1.496;2023-10-08T09:04:07;100247.45;;;22.16;39.10
83025;BME280;72958;53.326;-1.496;2023-10-08T09:06:38;100249.14;;;22.34;38.61
83025;BME280;72958;53.326;-1.496;2023-10-08T09:09:38;100249.77;;;22.60;38.35
83025;BME280;72958;53.326;-1.496;2023-10-08T09:12:17;100253.31;;;22.29;38.41
83025;BME280;72958;53.326;-1.496;2023-10-08T09:14:50;100261.70;;;22.47;38.30
83025;BME280;72958;53.326;-1.496;2023-10-08T09:18:12;100271.54;;;22.67;37.68
83025;BME280;72958;53.326;-1.496;2023-10-08T09:20:40;100282.92;;;22.39;37.82
83025;BME280;72958;53.326;-1.496;2023-10-08T09:23:31;100289.44;;;21.41;40.06
83025;BME280;72958;53.326;-1.496;2023-10-08T09:26:24;100275.32;;;21.71;39.55
83025;BME280;72958;53.326;-1.496;2023-10-08T09:28:53;100253.98;;;22.47;38.71
83025;BME280;72958;53.326;-1.496;2023-10-08T09:31:35;100248.57;;;22.57;38.61
83025;BME280;72958;53.326;-1.496;2023-10-08T09:34:16;100238.86;;;22.43;38.04
83025;BME280;72958;53.326;-1.496;2023-10-08T09:36:48;100241.15;;;22.78;38.48
83025;BME280;72958;53.326;-1.496;2023-10-08T09:39:37;100237.21;;;22.45;38.44
83025;BME280;72958;53.326;-1.496;2023-10-08T09:43:31;100232.93;;;22.45;38.00
83025;BME280;72958;53.326;-1.496;2023-10-08T09:46:18;100226.54;;;22.08;38.04
83025;BME280;72958;53.326;-1.496;2023-10-08T09:48:38;100226.73;;;22.67;37.78
83025;BME280;72958;53.326;-1.496;2023-10-08T09:51:21;100221.50;;;22.06;38.66
83025;BME280;72958;53.326;-1.496;2023-10-08T09:54:20;100222.50;;;22.70;38.33
83025;BME280;72958;53.326;-1.496;2023-10-08T09:56:40;100235.09;;;22.34;38.83
83025;BME280;72958;53.326;-1.496;2023-10-08T09:59:42;100226.93;;;22.74;38.18
83025;BME280;72958;53.326;-1.496;2023-10-08T10:02:17;100241.70;;;22.68;38.49
83025;BME280;72958;53.326;-1.496;2023-10-08T10:05:39;100244.25;;;22.97;38.47
83025;BME280;72958;53.326;-1.496;2023-10-08T10:08:36;100247.29;;;23.19;37.54
83025;BME280;72958;53.326;-1.496;2023-10-08T10:11:09;100251.80;;;23.40;37.43
83025;BME280;72958;53.326;-1.496;2023-10-08T10:14:41;100260.96;;;23.06;37.32
83025;BME280;72958;53.326;-1.496;2023-10-08T10:17:08;100253.23;;;23.03;37.59
83025;BME280;72958;53.326;-1.496;2023-10-08T10:19:54;100257.54;;;23.12;37.40
83025;BME280;72958;53.326;-1.496;2023-10-08T10:22:37;100254.93;;;23.41;37.05
83025;BME280;72958;53.326;-1.496;2023-10-08T10:25:43;100256.99;;;23.79;36.25
83025;BME280;72958;53.326;-1.496;2023-10-08T10:31:51;100253.94;;;24.10;35.81
83025;BME280;72958;53.326;-1.496;2023-10-08T10:35:00;100254.62;;;23.73;36.24
83025;BME280;72958;53.326;-1.496;2023-10-08T10:37:27;100246.74;;;23.16;36.62
83025;BME280;72958;53.326;-1.496;2023-10-08T10:41:37;100233.28;;;22.31;37.72
83025;BME280;72958;53.326;-1.496;2023-10-08T10:45:21;100229.82;;;23.60;36.13
83025;BME280;72958;53.326;-1.496;2023-10-08T10:48:13;100226.53;;;23.48;36.11
83025;BME280;72958;53.326;-1.496;2023-10-08T10:51:07;100220.64;;;23.53;35.99
83025;BME280;72958;53.326;-1.496;2023-10-08T10:54:23;100216.77;;;24.42;35.07
83025;BME280;72958;53.326;-1.496;2023-10-08T10:57:00;100213.84;;;24.48;34.39
83025;BME280;72958;53.326;-1.496;2023-10-08T10:59:35;100215.63;;;24.44;34.10
83025;BME280;72958;53.326;-1.496;2023-10-08T11:02:39;100222.56;;;24.75;33.53
83025;BME280;72958;53.326;-1.496;2023-10-08T11:05:41;100217.33;;;24.44;34.05
83025;BME280;72958;53.326;-1.496;2023-10-08T11:08:41;100209.06;;;24.86;33.21
83025;BME280;72958;53.326;-1.496;2023-10-08T11:12:14;100217.57;;;25.00;32.73
83025;BME280;72958;53.326;-1.496;2023-10-08T11:14:55;100216.42;;;25.50;31.82
83025;BME280;72958;53.326;-1.496;2023-10-08T11:17:45;100214.86;;;25.68;31.98
83025;BME280;72958;53.326;-1.496;2023-10-08T11:20:45;100215.04;;;25.85;31.34
83025;BME280;72958;53.326;-1.496;2023-10-08T11:23:42;100214.99;;;27.09;29.99
83025;BME280;72958;53.326;-1.496;2023-10-08T11:26:13;100213.17;;;26.33;30.78
83025;BME280;72958;53.326;-1.496;2023-10-08T11:28:52;100199.60;;;26.47;30.74
83025;BME280;72958;53.326;-1.496;2023-10-08T11:31:51;100198.45;;;27.34;30.52
83025;BME280;72958;53.326;-1.496;2023-10-08T11:34:47;100189.13;;;27.11;29.07
83025;BME280;72958;53.326;-1.496;2023-10-08T11:38:14;100180.10;;;27.06;29.76
83025;BME280;72958;53.326;-1.496;2023-10-08T11:41:12;100182.22;;;27.19;28.67
83025;BME280;72958;53.326;-1.496;2023-10-08T11:44:14;100182.01;;;28.17;27.74
83025;BME280;72958;53.326;-1.496;2023-10-08T11:47:50;100175.77;;;29.17;26.02
83025;BME280;72958;53.326;-1.496;2023-10-08T11:50:47;100163.15;;;28.89;24.70
83025;BME280;72958;53.326;-1.496;2023-10-08T11:53:20;100165.94;;;30.05;23.76
83025;BME280;72958;53.326;-1.496;2023-10-08T11:57:38;100165.59;;;30.20;23.48
83025;BME280;72958;53.326;-1.496;2023-10-08T12:00:52;100167.55;;;30.54;23.30
83025;BME280;72958;53.326;-1.496;2023-10-08T12:03:42;100165.30;;;32.56;22.40
83025;BME280;72958;53.326;-1.496;2023-10-08T12:06:31;100163.99;;;32.55;21.41
83025;BME280;72958;53.326;-1.496;2023-10-08T12:09:15;100167.24;;;32.52;21.05
83025;BME280;72958;53.326;-1.496;2023-10-08T12:11:55;100164.63;;;33.25;20.67
83025;BME280;72958;53.326;-1.496;2023-10-08T12:14:21;100160.54;;;32.51;20.55
83025;BME280;72958;53.326;-1.496;2023-10-08T12:17:21;100165.17;;;32.02;22.13
83025;BME280;72958;53.326;-1.496;2023-10-08T12:19:48;100169.51;;;31.57;21.48
83025;BME280;72958;53.326;-1.496;2023-10-08T12:22:32;100175.28;;;31.97;21.97
83025;BME280;72958;53.326;-1.496;2023-10-08T12:24:59;100172.19;;;31.34;22.38
83025;BME280;72958;53.326;-1.496;2023-10-08T12:27:36;100169.30;;;31.00;23.17
83025;BME280;72958;53.326;-1.496;2023-10-08T12:31:31;100156.87;;;31.56;22.44
83025;BME280;72958;53.326;-1.496;2023-10-08T12:34:32;100146.09;;;31.71;22.52
83025;BME280;72958;53.326;-1.496;2023-10-08T12:38:01;100134.81;;;31.16;24.95
83025;BME280;72958;53.326;-1.496;2023-10-08T12:41:00;100123.83;;;30.94;23.79
83025;BME280;72958;53.326;-1.496;2023-10-08T12:43:53;100122.10;;;29.63;23.89
83025;BME280;72958;53.326;-1.496;2023-10-08T12:49:55;100113.75;;;28.97;25.21
83025;BME280;72958;53.326;-1.496;2023-10-08T12:53:01;100113.45;;;27.82;27.38
83025;BME280;72958;53.326;-1.496;2023-10-08T12:58:25;100116.48;;;27.54;28.64
83025;BME280;72958;53.326;-1.496;2023-10-08T13:01:48;100119.40;;;27.16;28.18
83025;BME280;72958;53.326;-1.496;2023-10-08T13:05:15;100114.16;;;26.59;29.01
83025;BME280;72958;53.326;-1.496;2023-10-08T13:08:53;100106.18;;;26.60;28.75
83025;BME280;72958;53.326;-1.496;2023-10-08T13:12:10;100106.85;;;26.73;29.94
83025;BME280;72958;53.326;-1.496;2023-10-08T13:15:00;100105.26;;;26.70;30.40
83025;BME280;72958;53.326;-1.496;2023-10-08T13:17:35;100101.75;;;27.46;29.69
83025;BME280;72958;53.326;-1.496;2023-10-08T13:21:27;100107.44;;;27.56;29.87
83025;BME280;72958;53.326;-1.496;2023-10-08T13:24:03;100102.55;;;28.23;28.68
83025;BME280;72958;53.326;-1.496;2023-10-08T13:26:30;100102.02;;;28.32;29.87
83025;BME280;72958;53.326;-1.496;2023-10-08T13:29:15;100105.96;;;29.29;27.83
83025;BME280;72958;53.326;-1.496;2023-10-08T13:34:17;100105.67;;;29.92;25.99
83025;BME280;72958;53.326;-1.496;2023-10-08T13:38:27;100108.87;;;30.16;23.44
83025;BME280;72958;53.326;-1.496;2023-10-08T13:41:42;100094.78;;;29.76;24.10
83025;BME280;72958;53.326;-1.496;2023-10-08T13:46:02;100095.28;;;28.55;25.64
83025;BME280;72958;53.326;-1.496;2023-10-08T13:48:37;100091.37;;;29.16;23.82
83025;BME280;72958;53.326;-1.496;2023-10-08T13:51:13;100087.04;;;29.55;23.71
83025;BME280;72958;53.326;-1.496;2023-10-08T13:53:42;100080.70;;;30.59;22.15
83025;BME280;72958;53.326;-1.496;2023-10-08T13:58:13;100069.77;;;31.32;21.21
83025;BME280;72958;53.326;-1.496;2023-10-08T14:00:55;100073.58;;;31.91;20.65
83025;BME280;72958;53.326;-1.496;2023-10-08T14:03:47;100074.49;;;32.11;18.66
83025;BME280;72958;53.326;-1.496;2023-10-08T14:08:19;100070.90;;;31.25;20.41
83025;BME280;72958;53.326;-1.496;2023-10-08T14:11:13;100064.54;;;29.55;21.96
83025;BME280;72958;53.326;-1.496;2023-10-08T14:15:47;100066.50;;;28.18;23.40
83025;BME280;72958;53.326;-1.496;2023-10-08T14:18:29;100055.56;;;27.39;24.34
83025;BME280;72958;53.326;-1.496;2023-10-08T14:22:00;100052.99;;;27.20;24.80
83025;BME280;72958;53.326;-1.496;2023-10-08T14:24:29;100053.84;;;27.68;25.72
83025;BME280;72958;53.326;-1.496;2023-10-08T14:28:13;100048.22;;;27.29;25.54
83025;BME280;72958;53.326;-1.496;2023-10-08T14:31:25;100038.67;;;26.17;27.66
83025;BME280;72958;53.326;-1.496;2023-10-08T14:34:26;100038.68;;;27.16;25.69
83025;BME280;72958;53.326;-1.496;2023-10-08T14:37:00;100039.92;;;26.87;26.39
83025;BME280;72958;53.326;-1.496;2023-10-08T14:39:31;100026.44;;;27.65;26.55
83025;BME280;72958;53.326;-1.496;2023-10-08T14:42:02;100012.93;;;27.23;25.82
83025;BME280;72958;53.326;-1.496;2023-10-08T14:44:41;100009.78;;;26.74;26.18
83025;BME280;72958;53.326;-1.496;2023-10-08T14:47:09;100008.68;;;27.30;26.42
83025;BME280;72958;53.326;-1.496;2023-10-08T14:49:44;100009.21;;;26.32;26.91
83025;BME280;72958;53.326;-1.496;2023-10-08T14:52:38;100012.54;;;26.79;26.58
83025;BME280;72958;53.326;-1.496;2023-10-08T14:56:00;100010.82;;;26.75;25.84
83025;BME280;72958;53.326;-1.496;2023-10-08T14:58:31;100003.26;;;24.40;27.25
83025;BME280;72958;53.326;-1.496;2023-10-08T15:01:23;99982.18;;;26.41;25.81
83025;BME280;72958;53.326;-1.496;2023-10-08T15:04:54;99969.93;;;25.89;26.00
83025;BME280;72958;53.326;-1.496;2023-10-08T15:07:22;99970.90;;;26.77;25.19
83025;BME280;72958;53.326;-1.496;2023-10-08T15:10:34;99968.92;;;26.79;24.93